createdAt,value
2022-12-26T00:01:26.806Z,14.57
2022-12-26T00:03:59.886Z,16.27
2022-12-26T00:06:33.963Z,17.15
2022-12-26T00:09:07.771Z,18.60
2022-12-26T00:11:40.995Z,21.35
2022-12-26T00:14:16.549Z,20.00
2022-12-26T00:16:49.433Z,19.80
2022-12-26T00:19:22.316Z,15.35
2022-12-26T00:21:57.424Z,20.52
2022-12-26T00:24:30.394Z,21.88
2022-12-26T00:27:04.240Z,18.40
2022-12-26T00:29:38.368Z,18.90
2022-12-26T00:32:11.181Z,20.47
2022-12-26T00:34:44.783Z,18.25
2022-12-26T00:37:17.657Z,19.30
2022-12-26T00:39:50.486Z,22.00
2022-12-26T00:42:23.691Z,21.17
2022-12-26T00:44:57.982Z,21.02
2022-12-26T00:47:31.148Z,14.52
2022-12-26T00:50:13.763Z,21.50
2022-12-26T00:52:47.975Z,17.75
2022-12-26T00:55:21.141Z,20.05
2022-12-26T00:57:53.965Z,18.45
2022-12-26T01:00:28.841Z,18.75
2022-12-26T01:03:01.941Z,19.65
2022-12-26T01:05:35.338Z,18.25
2022-12-26T01:08:22.792Z,19.52
2022-12-26T01:10:57.645Z,18.30
2022-12-26T01:13:30.460Z,18.58
2022-12-26T01:16:06.358Z,16.20
2022-12-26T01:18:39.512Z,19.55
2022-12-26T01:21:12.481Z,21.13
2022-12-26T01:23:45.369Z,19.45
2022-12-26T01:26:20.300Z,19.48
2022-12-26T01:28:54.273Z,20.65
2022-12-26T01:31:31.443Z,22.67
2022-12-26T01:34:04.412Z,20.48
2022-12-26T01:36:37.328Z,19.92
2022-12-26T01:39:10.138Z,18.88
2022-12-26T01:41:42.974Z,20.23
2022-12-26T01:44:48.984Z,24.02
2022-12-26T01:47:26.710Z,25.42
2022-12-26T01:49:59.670Z,22.98
2022-12-26T01:52:37.774Z,18.65
2022-12-26T01:55:15.234Z,19.85
2022-12-26T01:57:54.679Z,19.77
2022-12-26T02:00:27.716Z,19.50
2022-12-26T02:03:19.584Z,16.88
2022-12-26T02:05:52.494Z,23.17
2022-12-26T02:08:30.192Z,19.90
2022-12-26T02:11:11.742Z,18.30
2022-12-26T02:13:44.860Z,17.55
2022-12-26T02:16:19.940Z,20.50
2022-12-26T02:18:54.144Z,19.00
2022-12-26T02:22:04.510Z,21.02
2022-12-26T02:24:59.431Z,20.08
2022-12-26T02:28:01.536Z,19.47
2022-12-26T02:30:43.115Z,15.38
2022-12-26T02:33:32.713Z,19.27
2022-12-26T02:36:40.476Z,19.90
2022-12-26T02:39:44.614Z,22.70
2022-12-26T02:42:36.058Z,17.73
2022-12-26T02:45:35.246Z,20.73
2022-12-26T02:48:15.576Z,23.50
2022-12-26T02:51:15.901Z,17.95
2022-12-26T02:54:16.651Z,21.35
2022-12-26T02:57:12.324Z,25.65
2022-12-26T03:03:03.074Z,19.02
2022-12-26T03:06:00.557Z,19.70
2022-12-26T03:08:55.353Z,22.42
2022-12-26T03:11:51.190Z,22.47
2022-12-26T03:14:29.301Z,18.60
2022-12-26T03:17:21.486Z,18.45
2022-12-26T03:20:01.550Z,16.25
2022-12-26T03:22:43.110Z,20.35
2022-12-26T03:25:39.175Z,19.23
2022-12-26T03:28:14.008Z,15.27
2022-12-26T03:30:49.214Z,13.77
2022-12-26T03:33:43.184Z,10.65
2022-12-26T03:36:19.487Z,10.05
2022-12-26T03:39:07.477Z,11.90
2022-12-26T03:42:08.912Z,12.60
2022-12-26T03:45:10.271Z,13.00
2022-12-26T03:48:10.794Z,13.40
2022-12-26T03:51:06.570Z,13.20
2022-12-26T03:54:03.975Z,15.77
2022-12-26T03:57:00.126Z,14.93
2022-12-26T04:00:10.365Z,14.35
2022-12-26T04:03:07.193Z,14.85
2022-12-26T04:06:04.494Z,11.57
2022-12-26T04:09:03.851Z,14.15
2022-12-26T04:11:57.921Z,18.10
2022-12-26T04:15:12.324Z,14.75
2022-12-26T04:18:06.841Z,15.32
2022-12-26T04:21:05.358Z,14.57
2022-12-26T04:24:02.479Z,15.85
2022-12-26T04:26:59.595Z,13.60
2022-12-26T04:29:49.756Z,12.82
2022-12-26T04:32:50.355Z,13.32
2022-12-26T04:35:46.467Z,13.18
2022-12-26T04:38:43.055Z,12.75
2022-12-26T04:41:35.341Z,13.10
2022-12-26T04:44:11.841Z,11.13
2022-12-26T04:46:47.161Z,13.20
2022-12-26T04:49:40.569Z,14.25
2022-12-26T04:52:15.596Z,11.63
2022-12-26T04:54:48.633Z,14.77
2022-12-26T04:57:22.717Z,11.73
2022-12-26T04:59:56.932Z,12.70
2022-12-26T05:02:48.017Z,12.27
2022-12-26T05:05:38.638Z,10.55
2022-12-26T05:08:41.509Z,11.93
2022-12-26T05:11:14.495Z,11.10
2022-12-26T05:13:50.134Z,12.40
2022-12-26T05:16:43.568Z,9.55
2022-12-26T05:19:35.856Z,10.77
2022-12-26T05:22:29.354Z,9.85
2022-12-26T05:25:19.460Z,7.20
2022-12-26T05:28:09.761Z,10.10
2022-12-26T05:30:42.508Z,8.55
2022-12-26T05:33:34.455Z,7.88
2022-12-26T05:36:07.697Z,9.07
2022-12-26T05:38:40.581Z,8.55
2022-12-26T05:41:13.378Z,9.20
2022-12-26T05:43:46.161Z,9.07
2022-12-26T05:46:19.896Z,8.93
2022-12-26T05:48:54.827Z,8.88
2022-12-26T05:51:27.728Z,8.73
2022-12-26T05:54:00.946Z,8.27
2022-12-26T05:56:33.827Z,8.18
2022-12-26T05:59:06.668Z,9.35
2022-12-26T06:01:39.575Z,10.35
2022-12-26T06:04:14.769Z,10.90
2022-12-26T06:06:47.580Z,9.55
2022-12-26T06:09:20.489Z,8.05
2022-12-26T06:11:53.262Z,9.93
2022-12-26T06:14:26.199Z,10.10
2022-12-26T06:16:59.233Z,8.68
2022-12-26T06:19:33.894Z,8.20
2022-12-26T06:22:07.047Z,9.93
2022-12-26T06:24:39.870Z,9.73
2022-12-26T06:27:12.734Z,9.43
2022-12-26T06:29:45.534Z,9.27
2022-12-26T06:32:18.377Z,7.88
2022-12-26T06:34:52.539Z,7.07
2022-12-26T06:37:25.414Z,8.30
2022-12-26T06:39:58.199Z,8.75
2022-12-26T06:42:31.048Z,9.60
2022-12-26T06:45:05.431Z,8.85
2022-12-26T06:47:38.298Z,9.02
2022-12-26T06:50:12.886Z,7.65
2022-12-26T06:52:45.778Z,9.93
2022-12-26T06:55:18.772Z,7.82
2022-12-26T06:57:53.373Z,10.00
2022-12-26T07:00:26.345Z,9.65
2022-12-26T07:02:59.322Z,11.55
2022-12-26T07:05:36.905Z,13.25
2022-12-26T07:08:09.754Z,10.68
2022-12-26T07:10:42.633Z,12.23
2022-12-26T07:13:15.468Z,19.02
2022-12-26T07:15:48.307Z,13.73
2022-12-26T07:18:21.111Z,13.65
2022-12-26T07:20:55.661Z,13.35
2022-12-26T07:23:29.620Z,13.35
2022-12-26T07:26:02.510Z,13.27
2022-12-26T07:28:35.704Z,11.55
2022-12-26T07:31:08.563Z,13.77
2022-12-26T07:33:41.393Z,12.90
2022-12-26T07:36:15.586Z,16.25
2022-12-26T07:38:48.653Z,9.53
2022-12-26T07:41:38.997Z,10.98
2022-12-26T07:44:13.487Z,9.73
2022-12-26T07:46:47.010Z,8.98
2022-12-26T07:49:19.830Z,9.05
2022-12-26T07:51:54.140Z,14.38
2022-12-26T07:54:28.536Z,9.75
2022-12-26T07:57:29.692Z,8.85
2022-12-26T07:59:54.431Z,9.27
2022-12-26T08:02:28.604Z,9.95
2022-12-26T08:05:01.589Z,10.68
2022-12-26T08:07:36.179Z,12.60
2022-12-26T08:10:09.658Z,10.52
2022-12-26T08:12:42.549Z,8.50
2022-12-26T08:15:15.436Z,7.97
2022-12-26T08:17:48.327Z,7.13
2022-12-26T08:20:21.127Z,7.57
2022-12-26T08:25:33.088Z,6.22
2022-12-26T08:28:06.355Z,8.13
2022-12-26T08:30:41.479Z,8.07
2022-12-26T08:33:14.539Z,13.38
2022-12-26T08:35:47.370Z,5.70
2022-12-26T08:38:21.513Z,4.90
2022-12-26T08:40:56.532Z,6.03
2022-12-26T08:43:45.339Z,8.45
2022-12-26T08:46:23.471Z,6.47
2022-12-26T08:48:56.282Z,4.90
2022-12-26T08:51:29.063Z,7.25
2022-12-26T08:54:03.495Z,6.28
2022-12-26T08:56:36.561Z,6.03
2022-12-26T08:59:09.637Z,3.92
2022-12-26T09:01:42.538Z,6.03
2022-12-26T09:04:15.633Z,4.50
2022-12-26T09:06:49.171Z,4.90
2022-12-26T09:09:25.822Z,4.30
2022-12-26T09:11:58.634Z,4.97
2022-12-26T09:14:31.652Z,2.42
2022-12-26T09:17:05.064Z,3.88
2022-12-26T09:19:37.899Z,3.83
2022-12-26T09:22:33.350Z,3.40
2022-12-26T09:25:10.189Z,6.65
2022-12-26T09:27:43.269Z,4.35
2022-12-26T09:30:17.432Z,4.55
2022-12-26T09:32:50.894Z,4.30
2022-12-26T09:35:23.741Z,7.03
2022-12-26T09:37:56.476Z,6.80
2022-12-26T09:40:39.402Z,7.93
2022-12-26T09:43:24.769Z,5.47
2022-12-26T09:46:07.020Z,4.75
2022-12-26T09:48:47.611Z,7.15
2022-12-26T09:51:20.596Z,4.15
2022-12-26T09:53:55.972Z,3.75
2022-12-26T09:59:29.568Z,3.40
2022-12-26T10:02:02.476Z,3.60
2022-12-26T10:04:35.623Z,4.13
2022-12-26T10:07:22.079Z,4.35
2022-12-26T10:10:12.086Z,2.63
2022-12-26T10:12:58.815Z,3.95
2022-12-26T10:15:42.200Z,5.82
2022-12-26T10:18:25.220Z,4.53
2022-12-26T10:21:13.455Z,3.22
2022-12-26T10:23:49.887Z,4.05
2022-12-26T10:26:26.084Z,4.80
2022-12-26T10:29:06.765Z,4.65
2022-12-26T10:31:43.861Z,5.35
2022-12-26T10:34:21.487Z,3.88
2022-12-26T10:37:00.001Z,2.45
2022-12-26T10:39:36.863Z,3.65
2022-12-26T10:42:15.691Z,3.00
2022-12-26T10:44:50.008Z,2.80
2022-12-26T10:47:28.366Z,2.90
2022-12-26T10:50:02.018Z,2.65
2022-12-26T10:52:39.863Z,2.83
2022-12-26T10:55:28.170Z,4.90
2022-12-26T10:58:07.967Z,3.22
2022-12-26T11:00:42.344Z,4.28
2022-12-26T11:03:17.202Z,2.67
2022-12-26T11:08:49.133Z,7.55
2022-12-26T11:11:25.381Z,2.83
2022-12-26T11:14:03.385Z,3.05
2022-12-26T11:16:41.271Z,4.40
2022-12-26T11:19:28.016Z,2.30
2022-12-26T11:22:31.155Z,2.53
2022-12-26T11:25:13.972Z,5.63
2022-12-26T11:27:48.876Z,3.83
2022-12-26T11:30:31.271Z,3.45
2022-12-26T11:33:18.837Z,3.88
2022-12-26T11:35:55.300Z,4.05
2022-12-26T11:38:42.362Z,2.13
2022-12-26T11:41:32.800Z,4.30
2022-12-26T11:44:16.703Z,2.28
2022-12-26T11:46:52.837Z,5.88
2022-12-26T11:49:31.498Z,3.08
2022-12-26T11:52:38.342Z,6.32
2022-12-26T11:55:33.350Z,5.70
2022-12-26T11:58:19.539Z,1.40
2022-12-26T12:01:18.614Z,4.20
2022-12-26T12:03:51.506Z,4.03
2022-12-26T12:06:43.354Z,3.78
2022-12-26T12:09:22.981Z,3.50
2022-12-26T12:12:04.626Z,4.65
2022-12-26T12:14:54.198Z,1.90
2022-12-26T12:17:31.966Z,3.17
2022-12-26T12:20:18.392Z,4.57
2022-12-26T12:23:35.332Z,6.60
2022-12-26T12:26:13.045Z,3.63
2022-12-26T12:29:13.604Z,5.80
2022-12-26T12:32:01.975Z,6.30
2022-12-26T12:35:02.064Z,3.38
2022-12-26T12:37:45.789Z,3.08
2022-12-26T12:40:32.525Z,8.32
2022-12-26T12:43:16.124Z,4.47
2022-12-26T12:45:57.649Z,10.38
2022-12-26T12:48:46.814Z,5.70
2022-12-26T12:51:29.063Z,6.00
2022-12-26T12:54:28.050Z,8.50
2022-12-26T12:57:09.803Z,6.75
2022-12-26T12:59:58.861Z,5.50
2022-12-26T13:02:39.405Z,7.03
2022-12-26T13:05:21.209Z,10.80
2022-12-26T13:07:59.823Z,3.53
2022-12-26T13:10:35.783Z,5.82
2022-12-26T13:13:19.544Z,5.97
2022-12-26T13:15:57.153Z,3.83
2022-12-26T13:18:36.099Z,5.80
2022-12-26T13:21:12.868Z,6.53
2022-12-26T13:24:07.412Z,5.50
2022-12-26T13:26:44.541Z,3.53
2022-12-26T13:29:25.522Z,5.38
2022-12-26T13:31:59.532Z,6.05
2022-12-26T13:34:33.143Z,5.07
2022-12-26T13:37:06.037Z,10.82
2022-12-26T13:39:41.585Z,9.02
2022-12-26T13:42:38.669Z,5.25
2022-12-26T13:45:59.187Z,6.32
2022-12-26T13:49:03.746Z,5.68
2022-12-26T13:51:55.072Z,4.70
2022-12-26T13:54:29.849Z,5.03
2022-12-26T13:57:21.040Z,6.90
2022-12-26T14:00:23.969Z,5.32
2022-12-26T14:03:25.520Z,7.40
2022-12-26T14:06:21.932Z,8.13
2022-12-26T14:09:11.364Z,6.43
2022-12-26T14:12:09.811Z,4.85
2022-12-26T14:14:56.931Z,6.20
2022-12-26T14:17:38.719Z,12.80
2022-12-26T14:20:24.797Z,10.13
2022-12-26T14:23:12.946Z,7.40
2022-12-26T14:25:52.886Z,6.90
2022-12-26T14:28:33.306Z,23.25
2022-12-26T14:31:22.792Z,5.15
2022-12-26T14:34:06.938Z,7.45
2022-12-26T14:36:51.026Z,6.50
2022-12-26T14:39:33.373Z,5.57
2022-12-26T14:42:34.660Z,4.13
2022-12-26T14:45:36.564Z,4.60
2022-12-26T14:48:47.592Z,10.25
2022-12-26T14:51:37.282Z,6.47
2022-12-26T14:54:37.206Z,10.73
2022-12-26T14:57:46.727Z,8.52
2022-12-26T15:00:41.075Z,7.53
2022-12-26T15:03:41.794Z,8.23
2022-12-26T15:06:36.835Z,5.78
2022-12-26T15:09:38.183Z,8.57
2022-12-26T15:12:32.331Z,6.35
2022-12-26T15:15:24.110Z,8.15
2022-12-26T15:18:23.033Z,8.15
2022-12-26T15:21:16.933Z,4.55
2022-12-26T15:24:18.527Z,3.55
2022-12-26T15:27:19.798Z,5.40
2022-12-26T15:30:06.185Z,6.22
2022-12-26T15:32:47.461Z,4.32
2022-12-26T15:35:24.179Z,3.70
2022-12-26T15:38:13.698Z,7.60
2022-12-26T15:40:55.307Z,20.08
2022-12-26T15:43:40.528Z,5.78
2022-12-26T15:46:21.987Z,8.98
2022-12-26T15:49:21.017Z,10.73
2022-12-26T15:52:05.863Z,5.88
2022-12-26T15:55:01.224Z,9.43
2022-12-26T15:57:46.762Z,8.38
2022-12-26T16:00:23.768Z,7.97
2022-12-26T16:03:14.562Z,6.65
2022-12-26T16:06:00.045Z,5.28
2022-12-26T16:09:04.741Z,5.05
2022-12-26T16:11:49.880Z,5.05
2022-12-26T16:14:32.084Z,5.45
2022-12-26T16:17:17.725Z,6.90
2022-12-26T16:19:53.194Z,4.57
2022-12-26T16:22:49.410Z,6.07
2022-12-26T16:25:24.947Z,19.05
2022-12-26T16:28:00.908Z,10.70
2022-12-26T16:30:38.258Z,4.10
2022-12-26T16:33:13.504Z,4.63
2022-12-26T16:35:47.914Z,4.20
2022-12-26T16:38:30.005Z,6.35
2022-12-26T16:41:09.450Z,7.80
2022-12-26T16:43:42.400Z,13.25
2022-12-26T16:46:18.150Z,16.33
2022-12-26T16:48:55.383Z,6.68
2022-12-26T16:51:41.598Z,6.72
2022-12-26T16:54:26.397Z,5.78
2022-12-26T16:57:05.372Z,9.63
2022-12-26T16:59:45.250Z,6.00
2022-12-26T17:02:23.294Z,5.13
2022-12-26T17:05:01.472Z,9.52
2022-12-26T17:07:40.252Z,12.00
2022-12-26T17:10:19.865Z,6.45
2022-12-26T17:12:54.287Z,6.88
2022-12-26T17:15:31.600Z,7.72
2022-12-26T17:18:30.664Z,7.13
2022-12-26T17:21:21.420Z,13.07
2022-12-26T17:24:15.026Z,6.25
2022-12-26T17:26:52.989Z,5.97
2022-12-26T17:29:47.191Z,7.50
2022-12-26T17:32:36.400Z,8.68
2022-12-26T17:35:14.133Z,8.65
2022-12-26T17:37:51.090Z,7.35
2022-12-26T17:40:29.442Z,8.05
2022-12-26T17:43:08.013Z,9.18
2022-12-26T17:45:46.842Z,4.43
2022-12-26T17:48:20.014Z,7.90
2022-12-26T17:50:57.075Z,21.80
2022-12-26T17:53:33.045Z,9.45
2022-12-26T17:56:09.200Z,6.00
2022-12-26T17:58:42.293Z,10.75
2022-12-26T18:01:20.743Z,7.82
2022-12-26T18:03:54.599Z,2.55
2022-12-26T18:06:27.688Z,3.22
2022-12-26T18:09:00.470Z,8.75
2022-12-26T18:11:36.044Z,2.97
2022-12-26T18:14:14.307Z,7.80
2022-12-26T18:16:48.830Z,3.60
2022-12-26T18:19:21.847Z,6.13
2022-12-26T18:21:54.577Z,6.40
2022-12-26T18:24:27.382Z,5.47
2022-12-26T18:27:01.868Z,5.90
2022-12-26T18:29:34.690Z,6.10
2022-12-26T18:32:19.679Z,3.80
2022-12-26T18:34:53.238Z,7.85
2022-12-26T18:37:28.134Z,6.38
2022-12-26T18:40:01.040Z,4.65
2022-12-26T18:42:35.271Z,5.72
2022-12-26T18:45:08.584Z,5.57
2022-12-26T18:47:41.426Z,6.22
2022-12-26T18:50:16.685Z,5.47
2022-12-26T18:52:53.488Z,6.18
2022-12-26T18:55:28.599Z,7.05
2022-12-26T18:58:02.896Z,6.10
2022-12-26T19:00:36.335Z,7.80
2022-12-26T19:03:09.247Z,4.60
2022-12-26T19:05:42.376Z,4.63
2022-12-26T19:08:15.535Z,5.93
2022-12-26T19:10:48.348Z,5.13
2022-12-26T19:13:22.668Z,6.30
2022-12-26T19:15:55.763Z,5.07
2022-12-26T19:18:28.583Z,6.75
2022-12-26T19:21:02.028Z,3.60
2022-12-26T19:23:34.895Z,9.15
2022-12-26T19:26:11.575Z,6.90
2022-12-26T19:28:45.903Z,5.88
2022-12-26T19:31:18.882Z,6.28
2022-12-26T19:33:51.775Z,11.60
2022-12-26T19:36:24.555Z,7.03
2022-12-26T19:38:57.625Z,4.93
2022-12-26T19:41:30.417Z,4.30
2022-12-26T19:44:04.628Z,7.88
2022-12-26T19:46:37.925Z,7.30
2022-12-26T19:49:10.764Z,5.28
2022-12-26T19:51:43.601Z,7.10
2022-12-26T19:54:16.673Z,6.88
2022-12-26T19:56:49.883Z,9.05
2022-12-26T19:59:24.064Z,7.70
2022-12-26T20:01:57.064Z,7.20
2022-12-26T20:04:30.046Z,4.30
2022-12-26T20:07:02.917Z,7.65
2022-12-26T20:09:35.878Z,6.25
2022-12-26T20:12:09.096Z,5.18
2022-12-26T20:14:43.395Z,7.13
2022-12-26T20:17:16.645Z,10.10
2022-12-26T20:19:50.114Z,9.70
2022-12-26T20:22:23.481Z,5.97
2022-12-26T20:24:56.599Z,9.77
2022-12-26T20:27:29.752Z,4.57
2022-12-26T20:30:04.988Z,6.65
2022-12-26T20:32:37.843Z,8.93
2022-12-26T20:35:10.858Z,9.32
2022-12-26T20:37:43.648Z,5.07
2022-12-26T20:40:16.627Z,7.43
2022-12-26T20:42:49.506Z,11.85
2022-12-26T20:45:23.712Z,5.72
2022-12-26T20:47:56.521Z,5.72
2022-12-26T20:50:29.373Z,6.40
2022-12-26T20:53:02.182Z,9.77
2022-12-26T20:55:37.107Z,11.93
2022-12-26T20:58:09.952Z,9.13
2022-12-26T21:00:45.744Z,4.97
2022-12-26T21:03:18.686Z,10.05
2022-12-26T21:05:51.923Z,7.10
2022-12-26T21:08:24.835Z,7.50
2022-12-26T21:10:57.814Z,9.68
2022-12-26T21:13:30.723Z,7.40
2022-12-26T21:16:10.190Z,7.38
2022-12-26T21:18:43.781Z,9.23
2022-12-26T21:21:18.656Z,10.40
2022-12-26T21:23:56.854Z,6.15
2022-12-26T21:26:30.057Z,5.22
2022-12-26T21:29:05.621Z,8.63
2022-12-26T21:31:40.362Z,5.38
2022-12-26T21:34:15.267Z,4.68
2022-12-26T21:39:42.259Z,5.90
2022-12-26T21:42:15.358Z,5.32
2022-12-26T21:44:48.810Z,6.13
2022-12-26T21:47:23.098Z,6.00
2022-12-26T21:49:55.922Z,6.43
2022-12-26T21:52:28.801Z,4.47
2022-12-26T21:55:19.703Z,9.55
2022-12-26T21:57:52.645Z,4.50
2022-12-26T22:00:25.689Z,7.45
2022-12-26T22:03:17.524Z,5.57
2022-12-26T22:05:50.620Z,5.25
2022-12-26T22:08:23.431Z,4.68
2022-12-26T22:11:13.630Z,7.43
2022-12-26T22:13:47.044Z,4.45
2022-12-26T22:16:20.211Z,11.88
2022-12-26T22:18:57.329Z,8.23
2022-12-26T22:21:30.270Z,5.00
2022-12-26T22:24:03.173Z,4.15
2022-12-26T22:26:35.998Z,7.20
2022-12-26T22:29:09.019Z,6.35
2022-12-26T22:31:41.835Z,4.97
2022-12-26T22:34:17.269Z,10.10
2022-12-26T22:36:50.337Z,6.68
2022-12-26T22:39:23.163Z,5.72
2022-12-26T22:42:01.999Z,6.55
2022-12-26T22:44:35.184Z,5.97
2022-12-26T22:47:07.983Z,11.32
2022-12-26T22:49:42.161Z,9.13
2022-12-26T22:52:16.105Z,7.27
2022-12-26T22:54:49.079Z,4.20
2022-12-26T22:57:22.491Z,4.28
2022-12-26T23:00:11.610Z,6.40
2022-12-26T23:02:44.761Z,8.13
2022-12-26T23:05:20.038Z,7.63
2022-12-26T23:07:54.503Z,6.55
2022-12-26T23:10:30.369Z,4.78
2022-12-26T23:13:03.822Z,6.45
2022-12-26T23:15:41.616Z,9.88
2022-12-26T23:18:42.956Z,5.25
2022-12-26T23:21:39.715Z,8.50
2022-12-26T23:24:16.644Z,8.10
2022-12-26T23:26:51.560Z,6.13
2022-12-26T23:32:15.542Z,4.95
2022-12-26T23:34:48.364Z,10.43
2022-12-26T23:37:22.663Z,7.40
2022-12-26T23:39:55.497Z,7.40
2022-12-26T23:42:28.374Z,6.68
2022-12-26T23:45:01.201Z,4.20
2022-12-26T23:47:37.003Z,8.48
2022-12-26T23:50:12.102Z,8.73
2022-12-26T23:52:46.517Z,4.70
2022-12-26T23:55:19.395Z,8.10
2022-12-26T23:57:52.263Z,7.13
